Time;durP1;ratioP1;P1;durP2;ratioP2;P2;SDS_P1;SDS_P2;PMS_P1;PMS_P2;Temp;Humidity;BMP_temperature;BMP_pressure;BME280_temperature;BME280_humidity;BME280_pressure;Samples;Min_cycle;Max_cycle;Signal;HPM_P1;HPM_P2
2022/08/16 00:01:52;;;;;;;6.68;4.78;;;21.90;80.30;;;;;;5071514;28;20111;-66
2022/08/16 00:04:18;;;;;;;6.72;4.45;;;21.90;80.40;;;;;;5080510;28;20384;-67
2022/08/16 00:06:43;;;;;;;6.05;4.82;;;21.80;80.40;;;;;;5078338;28;20529;-66
2022/08/16 00:09:09;;;;;;;5.18;4.68;;;21.80;80.50;;;;;;5087501;28;20033;-66
2022/08/16 00:11:36;;;;;;;7.38;4.13;;;21.80;80.60;;;;;;5080958;28;20068;-66
2022/08/16 00:14:06;;;;;;;5.32;4.60;;;21.80;80.70;;;;;;5078559;28;20045;-66
2022/08/16 00:16:32;;;;;;;5.65;5.15;;;21.70;80.70;;;;;;5084606;28;20498;-66
2022/08/16 00:18:58;;;;;;;4.60;4.13;;;21.70;80.90;;;;;;5083560;28;20101;-66
2022/08/16 00:21:25;;;;;;;5.15;4.65;;;21.70;80.90;;;;;;5081032;28;20028;-66
2022/08/16 00:23:51;;;;;;;5.28;4.78;;;21.70;80.90;;;;;;5076617;28;20768;-66
2022/08/16 00:26:16;;;;;;;6.35;5.03;;;21.70;81.00;;;;;;5084721;28;20070;-66
2022/08/16 00:28:42;;;;;;;4.93;4.53;;;21.60;81.20;;;;;;5089717;28;20046;-66
2022/08/16 00:31:07;;;;;;;5.20;4.70;;;21.60;81.30;;;;;;5091636;28;20047;-66
2022/08/16 00:33:33;;;;;;;5.60;5.10;;;21.50;81.40;;;;;;5083137;28;20024;-66
2022/08/16 00:35:58;;;;;;;6.07;5.47;;;21.50;81.50;;;;;;5075427;28;20119;-66
2022/08/16 00:38:24;;;;;;;5.85;5.22;;;21.50;81.60;;;;;;5081595;28;20056;-66
2022/08/16 00:40:52;;;;;;;5.60;4.93;;;21.50;81.60;;;;;;5077518;28;20127;-66
2022/08/16 00:43:34;;;;;;;6.03;5.32;;;21.50;81.70;;;;;;5075055;28;20403;-66
2022/08/16 00:46:18;;;;;;;5.25;4.75;;;21.50;81.70;;;;;;5089017;28;20027;-66
2022/08/16 00:48:44;;;;;;;5.47;4.95;;;21.40;81.90;;;;;;5088190;28;20027;-66
2022/08/16 00:51:12;;;;;;;5.95;5.35;;;21.40;82.10;;;;;;5079335;28;20402;-66
2022/08/16 00:53:38;;;;;;;6.63;5.00;;;21.40;82.20;;;;;;5078377;28;20025;-66
2022/08/16 00:56:12;;;;;;;5.25;4.78;;;21.40;82.30;;;;;;5075483;28;20436;-66
2022/08/16 00:58:42;;;;;;;6.10;4.85;;;21.40;82.60;;;;;;5083427;28;20028;-66
2022/08/16 01:01:09;;;;;;;4.80;4.40;;;21.20;82.80;;;;;;5078170;28;20043;-66
2022/08/16 01:03:36;;;;;;;6.43;4.63;;;21.20;83.30;;;;;;5077785;28;20020;-66
2022/08/16 01:06:03;;;;;;;5.55;5.00;;;21.10;83.60;;;;;;5074904;28;20032;-66
2022/08/16 01:08:30;;;;;;;7.15;5.45;;;21.00;83.80;;;;;;5081606;28;20012;-67
2022/08/16 01:10:56;;;;;;;6.28;5.68;;;21.00;84.00;;;;;;5077412;28;20016;-66
2022/08/16 01:13:26;;;;;;;6.50;5.90;;;20.90;84.20;;;;;;5076586;28;20020;-67
2022/08/16 01:16:07;;;;;;;9.30;8.40;;;20.90;84.30;;;;;;5084199;28;20034;-65
2022/08/16 01:18:37;;;;;;;11.45;10.32;;;20.90;84.70;;;;;;5081635;28;20035;-65
2022/08/16 01:21:24;;;;;;;11.15;10.05;;;20.70;85.60;;;;;;5083187;28;20043;-65
2022/08/16 01:24:22;;;;;;;13.02;11.63;;;20.70;86.20;;;;;;5078816;28;20025;-66
2022/08/16 01:26:50;;;;;;;10.38;9.35;;;20.60;86.70;;;;;;5078695;28;20057;-67
2022/08/16 01:29:22;;;;;;;7.82;7.10;;;20.50;87.00;;;;;;5083962;28;20073;-67
2022/08/16 01:31:48;;;;;;;8.05;7.32;;;20.60;86.80;;;;;;5083921;28;20044;-67
2022/08/16 01:34:16;;;;;;;13.65;11.63;;;20.60;86.60;;;;;;5078628;28;20457;-67
2022/08/16 01:36:42;;;;;;;16.98;15.20;;;20.50;87.40;;;;;;5075869;28;20036;-67
2022/08/16 01:39:16;;;;;;;15.65;13.90;;;20.40;88.40;;;;;;5081902;28;20028;-67
2022/08/16 01:41:42;;;;;;;15.07;13.48;;;20.30;89.00;;;;;;5078392;28;20047;-67
2022/08/16 01:44:08;;;;;;;14.20;12.80;;;20.20;89.40;;;;;;5072344;28;20384;-67
2022/08/16 01:46:36;;;;;;;16.63;13.98;;;20.20;89.40;;;;;;5076436;28;20020;-67
2022/08/16 01:49:10;;;;;;;16.27;14.38;;;20.20;89.50;;;;;;5080903;28;20070;-67
2022/08/16 01:51:38;;;;;;;15.30;13.68;;;20.20;89.70;;;;;;5082031;28;20020;-67
2022/08/16 01:54:04;;;;;;;16.63;14.88;;;20.20;89.90;;;;;;5073967;28;20085;-67
2022/08/16 01:56:31;;;;;;;14.75;13.00;;;20.20;90.10;;;;;;5078877;28;20557;-67
2022/08/16 01:58:59;;;;;;;14.02;12.55;;;20.10;90.20;;;;;;5075331;28;20133;-67
2022/08/16 02:01:24;;;;;;;15.05;13.55;;;20.20;90.60;;;;;;5086985;28;20043;-67
2022/08/16 02:03:50;;;;;;;11.95;10.70;;;20.10;90.40;;;;;;5073713;28;20134;-67
2022/08/16 02:06:16;;;;;;;10.85;9.85;;;20.10;90.30;;;;;;5077285;28;20048;-67
2022/08/16 02:08:42;;;;;;;10.07;9.05;;;20.10;90.30;;;;;;5078549;28;20024;-67
2022/08/16 02:11:08;;;;;;;10.65;9.68;;;20.20;90.20;;;;;;5076181;28;20023;-67
2022/08/16 02:13:36;;;;;;;10.43;9.43;;;20.20;90.20;;;;;;5076460;28;20016;-67
2022/08/16 02:16:02;;;;;;;14.10;12.70;;;20.20;90.40;;;;;;5081038;28;20054;-66
2022/08/16 02:18:28;;;;;;;19.15;15.70;;;20.20;90.30;;;;;;5081555;28;20028;-67
2022/08/16 02:20:53;;;;;;;14.85;13.35;;;20.10;90.60;;;;;;5077964;28;20378;-67
2022/08/16 02:23:19;;;;;;;13.23;11.75;;;20.00;90.80;;;;;;5080981;28;20028;-67
2022/08/16 02:25:46;;;;;;;12.75;11.45;;;19.90;90.90;;;;;;5074546;28;20537;-67
2022/08/16 02:28:12;;;;;;;11.48;10.48;;;19.90;91.10;;;;;;5079299;28;20016;-67
2022/08/16 02:30:38;;;;;;;10.98;9.98;;;19.90;91.10;;;;;;5081338;28;20086;-67
2022/08/16 02:33:04;;;;;;;11.13;10.02;;;19.90;91.20;;;;;;5077504;28;20024;-67
2022/08/16 02:35:31;;;;;;;14.07;12.30;;;19.90;91.20;;;;;;5087251;28;20032;-67
2022/08/16 02:37:57;;;;;;;15.20;13.60;;;20.00;91.30;;;;;;5082689;28;20481;-67
2022/08/16 02:40:23;;;;;;;15.30;13.73;;;19.90;91.50;;;;;;5075682;28;20152;-67
2022/08/16 02:42:49;;;;;;;12.48;11.27;;;19.90;91.70;;;;;;5083890;28;20032;-67
2022/08/16 02:45:16;;;;;;;12.70;10.82;;;19.80;91.70;;;;;;5074511;28;20024;-67
2022/08/16 02:47:42;;;;;;;13.35;12.02;;;19.90;91.80;;;;;;5077331;28;20480;-67
2022/08/16 02:50:08;;;;;;;10.90;9.82;;;19.80;91.90;;;;;;5083433;28;20029;-67
2022/08/16 02:52:33;;;;;;;13.65;12.27;;;19.80;91.90;;;;;;5084261;28;20048;-67
2022/08/16 02:54:59;;;;;;;13.63;12.23;;;19.80;92.00;;;;;;5078415;28;20501;-67
2022/08/16 02:57:25;;;;;;;14.02;12.63;;;19.80;92.20;;;;;;5077396;28;20041;-67
2022/08/16 02:59:50;;;;;;;14.95;13.20;;;19.80;92.30;;;;;;5074705;28;20030;-67
2022/08/16 03:02:17;;;;;;;12.35;11.23;;;19.70;92.40;;;;;;5078351;28;20032;-67
2022/08/16 03:04:42;;;;;;;11.95;10.85;;;19.70;92.40;;;;;;5079797;28;20146;-67
2022/08/16 03:07:09;;;;;;;11.80;10.60;;;19.70;92.50;;;;;;5085402;28;20564;-67
2022/08/16 03:09:35;;;;;;;13.23;11.88;;;19.70;92.50;;;;;;5057184;28;20394;-67
2022/08/16 03:12:03;;;;;;;16.40;14.75;;;19.70;92.60;;;;;;5081221;28;20060;-64
2022/08/16 03:14:29;;;;;;;14.82;13.32;;;19.60;92.80;;;;;;5081682;28;20393;-64
2022/08/16 03:16:54;;;;;;;12.45;11.23;;;19.60;93.00;;;;;;5086583;28;20019;-64
2022/08/16 03:19:20;;;;;;;11.60;10.40;;;19.60;93.00;;;;;;5078308;28;20468;-64
2022/08/16 03:21:46;;;;;;;9.18;8.27;;;19.60;93.00;;;;;;5078416;28;20550;-64
2022/08/16 03:24:12;;;;;;;12.32;11.13;;;19.50;93.00;;;;;;5078205;28;20028;-64
2022/08/16 03:26:38;;;;;;;14.25;12.15;;;19.50;93.00;;;;;;5087824;28;20074;-64
2022/08/16 03:29:03;;;;;;;13.50;12.15;;;19.40;93.10;;;;;;5082507;28;20032;-64
2022/08/16 03:31:29;;;;;;;17.58;15.88;;;19.40;93.30;;;;;;5089226;28;20102;-64
2022/08/16 03:33:55;;;;;;;20.50;18.42;;;19.40;93.70;;;;;;5082283;28;20024;-64
2022/08/16 03:36:20;;;;;;;19.58;17.58;;;19.20;94.10;;;;;;5087832;28;20035;-64
2022/08/16 03:38:46;;;;;;;19.92;17.83;;;19.20;94.50;;;;;;5085732;28;20024;-64
2022/08/16 03:41:12;;;;;;;20.02;17.85;;;19.10;94.80;;;;;;5079976;28;20563;-64
2022/08/16 03:43:38;;;;;;;20.98;18.88;;;19.00;95.20;;;;;;5080781;28;20027;-64
2022/08/16 03:46:03;;;;;;;20.15;17.95;;;19.00;95.60;;;;;;5077664;28;20020;-64
2022/08/16 03:48:33;;;;;;;20.40;18.30;;;18.90;95.80;;;;;;5075577;28;20394;-65
2022/08/16 03:51:00;;;;;;;20.20;18.20;;;18.80;96.00;;;;;;5084682;28;20028;-64
2022/08/16 03:53:27;;;;;;;21.75;19.45;;;18.80;96.30;;;;;;5084565;28;20081;-64
2022/08/16 03:55:53;;;;;;;21.95;19.58;;;18.70;96.50;;;;;;5080725;28;20032;-64
2022/08/16 03:58:18;;;;;;;21.70;19.25;;;18.70;96.80;;;;;;5083446;28;20028;-64
2022/08/16 04:00:44;;;;;;;19.17;17.27;;;18.60;97.00;;;;;;5090948;28;20024;-64
2022/08/16 04:03:10;;;;;;;19.95;17.85;;;18.60;97.10;;;;;;5083806;28;20059;-64
2022/08/16 04:05:49;;;;;;;24.40;19.40;;;18.60;97.20;;;;;;5073661;28;20016;-65
2022/08/16 04:08:16;;;;;;;20.40;18.23;;;18.60;97.30;;;;;;5076923;28;20024;-64
2022/08/16 04:10:41;;;;;;;21.00;18.80;;;18.60;97.60;;;;;;5070418;28;20028;-64
2022/08/16 04:13:07;;;;;;;21.25;19.00;;;18.50;97.80;;;;;;5082811;28;20107;-65
2022/08/16 04:15:32;;;;;;;18.95;17.05;;;18.50;98.00;;;;;;5075841;28;20032;-64
2022/08/16 04:18:00;;;;;;;18.02;16.23;;;18.50;98.10;;;;;;5079322;28;20088;-64
2022/08/16 04:20:27;;;;;;;19.58;17.40;;;18.50;98.00;;;;;;5076567;28;20024;-64
2022/08/16 04:22:52;;;;;;;19.75;17.00;;;18.50;98.00;;;;;;5083775;28;20480;-64
2022/08/16 04:25:19;;;;;;;19.42;17.52;;;18.50;98.00;;;;;;5076963;28;20039;-64
2022/08/16 04:27:45;;;;;;;19.63;17.63;;;18.50;98.00;;;;;;5081563;28;20096;-64
2022/08/16 04:30:13;;;;;;;21.50;19.23;;;18.50;98.10;;;;;;5082668;28;20024;-64
2022/08/16 04:32:40;;;;;;;20.45;18.35;;;18.50;98.20;;;;;;5086263;28;20021;-64
2022/08/16 04:35:07;;;;;;;20.42;18.38;;;18.50;98.30;;;;;;5084945;28;20035;-64
2022/08/16 04:37:33;;;;;;;21.45;19.25;;;18.40;98.40;;;;;;5089870;28;20021;-64
2022/08/16 04:39:59;;;;;;;19.65;17.63;;;18.40;98.50;;;;;;5084119;28;20031;-63
2022/08/16 04:42:24;;;;;;;26.65;19.90;;;18.40;98.60;;;;;;5084917;28;20038;-64
2022/08/16 04:44:50;;;;;;;20.92;18.73;;;18.40;98.70;;;;;;5086068;28;20036;-64
2022/08/16 04:47:15;;;;;;;22.05;19.95;;;18.30;98.90;;;;;;5091643;28;20016;-64
2022/08/16 04:49:41;;;;;;;22.27;19.98;;;18.30;99.10;;;;;;5093513;28;20497;-64
2022/08/16 04:52:06;;;;;;;21.15;18.80;;;18.30;99.30;;;;;;5094659;28;20028;-64
2022/08/16 04:54:32;;;;;;;22.80;20.50;;;18.30;99.50;;;;;;5094818;28;20166;-64
2022/08/16 04:56:57;;;;;;;22.83;20.30;;;18.30;99.70;;;;;;5093808;28;20024;-64
2022/08/16 04:59:23;;;;;;;22.42;19.67;;;18.30;99.80;;;;;;5094697;28;20024;-64
2022/08/16 05:01:55;;;;;;;24.63;21.08;;;18.30;99.90;;;;;;5095206;28;20024;-64
2022/08/16 05:04:21;;;;;;;21.88;19.60;;;18.30;99.90;;;;;;5094070;28;20019;-64
2022/08/16 05:06:47;;;;;;;21.02;18.90;;;18.30;99.90;;;;;;5081064;28;20090;-64
2022/08/16 05:09:12;;;;;;;21.75;19.55;;;18.40;99.90;;;;;;5093656;28;20470;-64
2022/08/16 05:11:38;;;;;;;21.90;19.63;;;18.40;99.90;;;;;;5094606;28;20027;-64
2022/08/16 05:14:04;;;;;;;20.90;18.80;;;18.40;99.90;;;;;;5092809;28;20027;-64
2022/08/16 05:16:30;;;;;;;21.70;19.48;;;18.40;99.90;;;;;;5073790;28;20028;-64
2022/08/16 05:18:58;;;;;;;21.90;19.35;;;18.40;99.90;;;;;;5090630;28;20078;-64
2022/08/16 05:21:23;;;;;;;21.08;18.83;;;18.40;99.90;;;;;;5094092;28;20020;-64
2022/08/16 05:23:50;;;;;;;21.27;19.00;;;18.50;99.90;;;;;;5089846;28;20019;-64
2022/08/16 05:26:16;;;;;;;20.33;18.13;;;18.50;99.90;;;;;;5094141;28;20016;-64
2022/08/16 05:28:42;;;;;;;19.85;17.85;;;18.60;99.90;;;;;;5094201;28;20024;-64
2022/08/16 05:31:57;;;;;;;;;;;;;;;;;;;;;
2022/08/16 05:34:23;;;;;;;17.35;15.13;;;18.70;99.90;;;;;;5088145;28;20012;-64
2022/08/16 05:36:49;;;;;;;18.27;16.38;;;18.70;99.90;;;;;;5093879;28;20012;-64
2022/08/16 05:39:15;;;;;;;20.88;18.65;;;18.70;99.90;;;;;;5080661;28;20081;-64
2022/08/16 05:41:40;;;;;;;20.52;16.38;;;18.80;99.80;;;;;;5094080;28;20529;-64
2022/08/16 05:44:06;;;;;;;18.98;17.15;;;18.80;99.70;;;;;;5093305;28;20436;-64
2022/08/16 05:46:32;;;;;;;22.65;20.35;;;18.90;99.70;;;;;;5094016;28;20474;-64
2022/08/16 05:49:01;;;;;;;23.85;21.25;;;18.90;99.60;;;;;;5092889;28;20128;-64
2022/08/16 05:51:27;;;;;;;;;;;19.00;99.80;;;;;;5093182;28;20028;-64
2022/08/16 05:53:52;;;;;;;24.17;21.75;;;19.00;99.80;;;;;;5093521;28;19909;-64
2022/08/16 05:56:18;;;;;;;24.35;21.65;;;19.00;99.90;;;;;;5093419;28;20016;-64
2022/08/16 05:58:43;;;;;;;25.65;22.80;;;19.00;99.90;;;;;;5093958;28;20059;-64
2022/08/16 06:01:09;;;;;;;28.10;23.80;;;19.10;99.80;;;;;;5092208;28;20016;-64
2022/08/16 06:03:36;;;;;;;22.73;20.55;;;19.10;99.70;;;;;;5093762;28;20020;-64
2022/08/16 06:06:02;;;;;;;20.70;18.73;;;19.20;99.80;;;;;;5093183;28;20070;-64
2022/08/16 06:08:27;;;;;;;19.73;17.85;;;19.30;99.40;;;;;;5092348;28;20441;-64
2022/08/16 06:10:53;;;;;;;23.80;21.50;;;19.30;99.20;;;;;;5090308;28;20043;-64
2022/08/16 06:13:19;;;;;;;22.58;20.05;;;19.40;99.10;;;;;;5091811;28;20039;-64
2022/08/16 06:15:45;;;;;;;21.60;19.00;;;19.50;98.90;;;;;;5092068;28;20024;-64
2022/08/16 06:18:10;;;;;;;20.58;18.58;;;19.60;98.70;;;;;;5091985;28;20028;-64
2022/08/16 06:20:36;;;;;;;22.52;20.25;;;19.70;98.50;;;;;;5088058;28;20032;-64
2022/08/16 06:23:02;;;;;;;24.50;22.00;;;19.70;98.30;;;;;;5090649;28;20115;-64
2022/08/16 06:25:28;;;;;;;25.77;23.08;;;19.80;98.00;;;;;;5079881;28;20473;-64
2022/08/16 06:27:54;;;;;;;23.98;21.67;;;19.80;97.70;;;;;;5082859;28;20078;-64
2022/08/16 06:30:20;;;;;;;23.88;21.48;;;19.90;97.90;;;;;;5088855;28;20016;-64
2022/08/16 06:32:46;;;;;;;21.05;18.88;;;19.90;97.50;;;;;;5076923;28;20067;-64
2022/08/16 06:35:12;;;;;;;23.58;21.25;;;20.00;97.30;;;;;;5092759;28;20040;-64
2022/08/16 06:37:39;;;;;;;22.23;19.85;;;20.10;97.10;;;;;;5088169;28;20036;-64
2022/08/16 06:40:06;;;;;;;21.58;19.38;;;20.10;97.00;;;;;;5073953;28;20031;-64
2022/08/16 06:42:31;;;;;;;21.42;19.23;;;20.20;96.90;;;;;;5088134;28;20792;-64
2022/08/16 06:44:57;;;;;;;24.00;21.40;;;20.30;96.60;;;;;;5084234;28;20416;-64
2022/08/16 06:47:24;;;;;;;27.13;23.02;;;20.30;96.30;;;;;;5092580;28;20043;-64
2022/08/16 06:49:50;;;;;;;23.70;21.40;;;20.40;95.90;;;;;;5092783;28;20030;-64
2022/08/16 06:52:15;;;;;;;18.58;16.77;;;20.40;95.80;;;;;;5092482;28;20020;-65
2022/08/16 06:54:44;;;;;;;22.45;20.13;;;20.50;95.60;;;;;;5092365;28;20023;-63
2022/08/16 06:57:10;;;;;;;20.08;18.15;;;20.60;95.30;;;;;;5091752;28;20477;-64
2022/08/16 06:59:36;;;;;;;19.98;17.95;;;20.60;95.10;;;;;;5093053;28;20032;-63
2022/08/16 07:02:03;;;;;;;18.83;17.05;;;20.70;94.90;;;;;;5092551;28;20024;-63
2022/08/16 07:04:28;;;;;;;20.48;18.50;;;20.70;94.70;;;;;;5092316;28;20031;-64
2022/08/16 07:06:54;;;;;;;21.60;19.40;;;20.80;94.50;;;;;;5092119;28;20381;-64
2022/08/16 07:09:20;;;;;;;21.83;19.67;;;20.90;94.30;;;;;;5092232;28;20101;-63
2022/08/16 07:11:45;;;;;;;18.02;16.33;;;20.90;94.00;;;;;;5090427;28;20553;-64
2022/08/16 07:14:12;;;;;;;18.27;16.50;;;21.00;94.00;;;;;;5092346;28;20039;-63
2022/08/16 07:16:40;;;;;;;18.73;16.83;;;21.10;94.10;;;;;;5078118;28;20036;-63
2022/08/16 07:19:09;;;;;;;19.73;16.98;;;21.20;93.60;;;;;;5079606;28;20020;-63
2022/08/16 07:21:35;;;;;;;17.17;15.43;;;21.20;93.30;;;;;;5107303;28;20035;-63
2022/08/16 07:24:02;;;;;;;18.70;16.83;;;21.30;93.10;;;;;;5090302;28;20492;-64
2022/08/16 07:26:28;;;;;;;18.17;16.27;;;21.30;92.80;;;;;;5087162;28;20398;-63
2022/08/16 07:28:53;;;;;;;21.05;18.85;;;21.40;92.80;;;;;;5092468;28;20020;-63
2022/08/16 07:31:20;;;;;;;22.45;20.25;;;21.40;92.40;;;;;;5091716;28;20017;-63
2022/08/16 07:33:45;;;;;;;17.08;15.45;;;21.50;92.10;;;;;;5092328;28;20027;-63
2022/08/16 07:36:12;;;;;;;14.93;13.45;;;21.50;92.10;;;;;;5091238;28;20028;-63
2022/08/16 07:38:39;;;;;;;16.13;14.40;;;21.60;92.10;;;;;;5090263;28;20032;-64
2022/08/16 07:41:05;;;;;;;21.38;19.10;;;21.70;92.00;;;;;;5080275;28;20404;-64
2022/08/16 07:43:31;;;;;;;19.20;17.40;;;21.80;91.30;;;;;;5073536;28;20040;-63
2022/08/16 07:45:57;;;;;;;16.38;14.82;;;21.80;91.30;;;;;;5090550;28;20024;-64
2022/08/16 07:48:23;;;;;;;15.48;13.98;;;21.90;91.20;;;;;;5079630;28;20013;-63
2022/08/16 07:50:49;;;;;;;16.17;14.48;;;22.00;90.60;;;;;;5074174;28;20501;-63
2022/08/16 07:53:14;;;;;;;19.15;16.50;;;22.10;90.50;;;;;;5089543;28;20031;-63
2022/08/16 07:55:40;;;;;;;16.00;14.40;;;22.20;90.20;;;;;;5076397;28;20020;-64
2022/08/16 07:58:06;;;;;;;15.65;13.32;;;22.30;89.70;;;;;;5090576;28;20127;-64
2022/08/16 08:00:33;;;;;;;16.63;14.93;;;22.40;89.00;;;;;;5082977;28;20040;-64
2022/08/16 08:02:59;;;;;;;14.77;13.27;;;22.50;87.30;;;;;;5089138;28;20028;-63
2022/08/16 08:05:25;;;;;;;13.02;11.48;;;22.60;87.30;;;;;;5085861;28;20032;-63
2022/08/16 08:07:52;;;;;;;13.38;12.07;;;22.70;87.10;;;;;;5081428;28;20035;-64
2022/08/16 08:10:18;;;;;;;14.30;12.80;;;22.80;87.00;;;;;;5090219;28;20028;-63
2022/08/16 08:12:47;;;;;;;16.48;14.68;;;22.90;87.00;;;;;;5092166;28;20019;-63
2022/08/16 08:15:13;;;;;;;15.40;12.43;;;22.90;86.90;;;;;;5083554;28;20047;-63
2022/08/16 08:17:39;;;;;;;12.48;11.27;;;23.00;87.10;;;;;;5095455;28;20736;-64
2022/08/16 08:20:07;;;;;;;18.17;16.35;;;23.10;87.10;;;;;;5089704;28;20028;-64
2022/08/16 08:22:35;;;;;;;14.18;12.77;;;23.20;87.00;;;;;;5093993;28;20111;-64
2022/08/16 08:25:01;;;;;;;15.15;13.55;;;23.30;86.90;;;;;;5093928;28;20028;-64
2022/08/16 08:27:27;;;;;;;14.93;13.35;;;23.30;86.70;;;;;;5090328;28;20020;-63
2022/08/16 08:29:53;;;;;;;19.52;16.92;;;23.40;86.70;;;;;;5091085;28;20021;-64
2022/08/16 08:32:20;;;;;;;17.80;15.90;;;23.40;85.70;;;;;;5089319;28;20447;-64
2022/08/16 08:34:46;;;;;;;13.52;12.23;;;23.50;85.50;;;;;;5093936;28;20107;-64
2022/08/16 08:37:12;;;;;;;14.73;13.20;;;23.60;85.60;;;;;;5095024;28;20130;-64
2022/08/16 08:39:38;;;;;;;13.70;12.30;;;23.60;85.00;;;;;;5075372;28;20501;-64
2022/08/16 08:42:05;;;;;;;12.65;11.45;;;23.70;84.90;;;;;;5084189;28;20036;-64
2022/08/16 08:44:32;;;;;;;12.43;11.13;;;23.80;84.40;;;;;;5095544;28;20063;-64
2022/08/16 08:47:03;;;;;;;9.60;8.80;;;23.80;84.10;;;;;;5083790;28;20074;-64
2022/08/16 08:49:29;;;;;;;11.40;9.95;;;24.00;84.10;;;;;;5093592;28;20545;-64
2022/08/16 08:51:56;;;;;;;12.95;11.65;;;24.00;83.50;;;;;;5089223;28;20082;-64
2022/08/16 08:54:22;;;;;;;14.52;12.48;;;24.10;82.60;;;;;;5079590;28;20039;-64
2022/08/16 08:56:47;;;;;;;10.82;9.77;;;24.20;82.00;;;;;;5084816;28;20032;-64
2022/08/16 08:59:13;;;;;;;11.70;10.60;;;24.20;81.80;;;;;;5089336;28;20099;-64
2022/08/16 09:01:40;;;;;;;10.25;9.20;;;24.30;81.40;;;;;;5084795;28;20021;-65
2022/08/16 09:04:06;;;;;;;11.50;10.20;;;24.40;80.70;;;;;;5090581;28;20016;-64
2022/08/16 09:06:33;;;;;;;11.95;9.30;;;24.50;80.40;;;;;;5094495;28;20055;-64
2022/08/16 09:08:59;;;;;;;11.95;10.25;;;24.60;79.80;;;;;;5093016;28;20016;-65
2022/08/16 09:11:26;;;;;;;10.90;8.88;;;24.70;78.80;;;;;;5094563;28;20535;-65
2022/08/16 09:13:51;;;;;;;8.43;7.57;;;24.80;78.80;;;;;;5090397;28;20047;-64
2022/08/16 09:16:17;;;;;;;8.15;7.35;;;24.90;78.70;;;;;;5090112;28;20032;-65
2022/08/16 09:18:44;;;;;;;12.73;11.35;;;25.00;78.30;;;;;;5092389;28;20028;-64
2022/08/16 09:21:10;;;;;;;11.10;10.00;;;25.10;77.70;;;;;;5085881;28;20020;-64
2022/08/16 09:23:37;;;;;;;9.70;8.82;;;25.20;77.10;;;;;;5087017;28;20142;-64
2022/08/16 09:26:17;;;;;;;15.20;10.43;;;25.30;76.50;;;;;;5092093;28;20497;-70
2022/08/16 09:28:44;;;;;;;11.75;10.57;;;25.40;75.30;;;;;;5079011;28;20051;-66
2022/08/16 09:31:11;;;;;;;12.75;11.55;;;25.40;74.90;;;;;;5092660;28;20368;-65
2022/08/16 09:33:38;;;;;;;11.48;10.30;;;25.40;74.40;;;;;;5093465;28;20023;-64
2022/08/16 09:36:04;;;;;;;9.90;7.25;;;25.40;74.40;;;;;;5092586;28;20024;-64
2022/08/16 09:38:30;;;;;;;8.25;7.20;;;25.50;74.40;;;;;;5077644;28;20094;-65
2022/08/16 09:40:56;;;;;;;8.93;8.02;;;25.60;74.30;;;;;;5091212;28;20044;-64
2022/08/16 09:43:22;;;;;;;8.13;7.30;;;25.70;73.50;;;;;;5093999;28;20036;-64
2022/08/16 09:45:48;;;;;;;8.13;7.40;;;25.90;72.60;;;;;;5093359;28;20493;-64
2022/08/16 09:48:14;;;;;;;7.13;6.43;;;25.90;72.40;;;;;;5092600;28;20021;-64
2022/08/16 09:50:42;;;;;;;8.30;6.95;;;25.90;72.30;;;;;;5093735;28;20085;-64
2022/08/16 09:53:12;;;;;;;6.80;6.20;;;26.10;72.20;;;;;;5089893;28;20028;-64
2022/08/16 09:55:39;;;;;;;7.63;6.65;;;26.20;71.80;;;;;;5092513;28;20024;-64
2022/08/16 09:58:04;;;;;;;7.03;6.13;;;26.30;70.70;;;;;;5092070;28;20016;-64
2022/08/16 10:00:54;;;;;;;6.90;6.25;;;26.40;70.70;;;;;;5090927;28;20116;-64
2022/08/16 10:03:19;;;;;;;6.65;6.05;;;26.50;70.50;;;;;;5093137;28;20032;-64
2022/08/16 10:05:45;;;;;;;7.55;6.05;;;26.60;70.30;;;;;;5093024;28;20024;-64
2022/08/16 10:08:12;;;;;;;7.18;5.72;;;26.70;69.60;;;;;;5093526;28;20039;-64
2022/08/16 10:13:10;;;;;;;8.70;7.07;;;26.70;69.00;;;;;;5092856;28;20103;-64
2022/08/16 10:13:27;;;;;;;6.38;5.65;;;26.80;68.30;;;;;;5092730;28;20031;-65
2022/08/16 10:15:58;;;;;;;6.20;5.63;;;26.90;68.20;;;;;;5093460;28;20028;-65
2022/08/16 10:18:26;;;;;;;6.40;5.80;;;26.90;67.70;;;;;;5079703;28;20028;-64
2022/08/16 10:20:52;;;;;;;7.18;5.72;;;27.00;67.70;;;;;;5093570;28;20036;-66
2022/08/16 10:23:17;;;;;;;6.47;5.82;;;27.10;67.60;;;;;;5092304;28;20028;-64
2022/08/16 10:25:45;;;;;;;8.02;7.22;;;27.20;66.90;;;;;;5091750;28;20032;-64
2022/08/16 10:28:12;;;;;;;9.45;6.60;;;27.20;65.40;;;;;;5087910;28;20013;-64
2022/08/16 10:30:42;;;;;;;6.68;5.32;;;27.20;65.60;;;;;;5091902;28;20420;-65
2022/08/16 10:33:12;;;;;;;8.40;6.28;;;27.40;66.00;;;;;;5089273;28;20020;-65
2022/08/16 10:35:38;;;;;;;6.90;5.97;;;27.50;65.40;;;;;;5090565;28;20020;-65
2022/08/16 10:38:04;;;;;;;6.90;5.72;;;27.60;65.40;;;;;;5089606;28;20488;-65
2022/08/16 10:40:29;;;;;;;8.27;5.10;;;27.80;65.40;;;;;;5089321;28;20032;-65
2022/08/16 10:42:58;;;;;;;6.78;5.47;;;28.00;65.20;;;;;;5087573;28;20531;-64
2022/08/16 10:45:30;;;;;;;4.95;4.55;;;28.10;64.80;;;;;;5088043;28;20070;-64
2022/08/16 10:47:56;;;;;;;5.97;5.47;;;28.20;64.90;;;;;;5082584;28;20048;-64
2022/08/16 10:50:22;;;;;;;5.97;5.43;;;28.50;64.10;;;;;;5082935;28;20020;-65
2022/08/16 10:52:47;;;;;;;4.93;4.40;;;28.70;63.70;;;;;;5082690;28;20032;-65
2022/08/16 10:55:14;;;;;;;4.72;4.28;;;28.80;63.40;;;;;;5092765;28;20027;-65
2022/08/16 10:57:40;;;;;;;7.97;5.63;;;29.00;63.50;;;;;;5075443;28;20028;-65
2022/08/16 11:00:11;;;;;;;6.07;5.22;;;29.30;62.80;;;;;;5072471;28;20025;-65
2022/08/16 11:02:37;;;;;;;6.18;5.18;;;29.50;62.00;;;;;;5077025;28;20378;-65
2022/08/16 11:05:05;;;;;;;8.90;5.15;;;29.60;60.90;;;;;;5092658;28;20032;-65
2022/08/16 11:07:30;;;;;;;8.35;5.47;;;29.80;59.80;;;;;;5073637;28;20020;-65
2022/08/16 11:09:57;;;;;;;5.78;5.18;;;29.90;58.00;;;;;;5079460;28;20069;-65
2022/08/16 11:12:26;;;;;;;5.20;4.20;;;29.70;57.90;;;;;;5087800;28;20494;-65
2022/08/16 11:14:51;;;;;;;6.20;4.97;;;29.90;58.70;;;;;;5091602;28;20485;-65
2022/08/16 11:17:17;;;;;;;5.45;4.90;;;29.90;58.10;;;;;;5091664;28;20036;-64
2022/08/16 11:19:42;;;;;;;5.30;4.80;;;30.10;58.40;;;;;;5090848;28;20035;-65
2022/08/16 11:22:08;;;;;;;6.35;5.70;;;30.20;58.40;;;;;;5088616;28;20602;-65
2022/08/16 11:24:38;;;;;;;5.82;5.22;;;30.40;58.40;;;;;;5090017;28;20028;-65
2022/08/16 11:27:08;;;;;;;6.28;5.53;;;30.60;58.20;;;;;;5077056;28;20024;-65
2022/08/16 11:29:34;;;;;;;4.88;4.47;;;30.80;57.80;;;;;;5090692;28;20432;-65
2022/08/16 11:32:00;;;;;;;6.50;4.97;;;31.00;57.60;;;;;;5090810;28;20024;-65
2022/08/16 11:34:26;;;;;;;4.50;4.10;;;31.10;56.80;;;;;;5090519;28;20539;-65
2022/08/16 11:36:51;;;;;;;5.60;5.00;;;31.30;56.50;;;;;;5084762;28;20570;-65
2022/08/16 11:39:17;;;;;;;6.80;5.07;;;31.50;56.00;;;;;;5087127;28;20031;-65
2022/08/16 11:41:43;;;;;;;6.90;4.95;;;31.80;54.90;;;;;;5084733;28;20051;-65
2022/08/16 11:44:34;;;;;;;6.00;5.40;;;32.00;54.40;;;;;;5091428;28;20069;-65
2022/08/16 11:47:00;;;;;;;5.30;4.80;;;32.30;54.00;;;;;;5089593;28;20028;-65
2022/08/16 11:49:25;;;;;;;5.78;4.63;;;32.70;53.80;;;;;;5095226;28;20020;-65
2022/08/16 11:51:51;;;;;;;8.30;5.60;;;32.90;53.30;;;;;;5095173;28;20469;-65
2022/08/16 11:54:16;;;;;;;6.20;5.18;;;33.00;53.00;;;;;;5095376;28;20382;-65
2022/08/16 11:56:42;;;;;;;5.60;5.10;;;32.90;53.10;;;;;;5094826;28;20016;-65
2022/08/16 11:59:08;;;;;;;5.10;4.50;;;33.00;53.20;;;;;;5093867;28;20028;-65
2022/08/16 12:01:34;;;;;;;4.35;3.95;;;33.10;53.40;;;;;;5085090;28;20053;-65
2022/08/16 12:04:00;;;;;;;5.45;4.40;;;33.30;53.00;;;;;;5081885;28;20119;-65
2022/08/16 12:06:31;;;;;;;4.82;4.43;;;33.30;52.30;;;;;;5076544;28;20032;-65
2022/08/16 12:08:59;;;;;;;4.47;4.07;;;33.10;52.00;;;;;;5090920;28;20077;-66
2022/08/16 12:11:25;;;;;;;6.53;5.05;;;32.90;52.20;;;;;;5092290;28;20028;-65
2022/08/16 12:13:52;;;;;;;4.60;4.20;;;32.70;52.00;;;;;;5094385;28;20045;-65
2022/08/16 12:16:18;;;;;;;5.50;5.00;;;32.60;52.30;;;;;;5092770;28;20043;-67
2022/08/16 12:18:44;;;;;;;5.88;5.13;;;32.50;52.50;;;;;;5092370;28;20024;-74
2022/08/16 12:21:09;;;;;;;5.70;4.60;;;32.40;52.60;;;;;;5094399;28;20035;-65
2022/08/16 12:23:35;;;;;;;5.20;4.28;;;32.30;52.90;;;;;;5094139;28;20028;-64
2022/08/16 12:26:01;;;;;;;4.22;3.83;;;32.30;52.70;;;;;;5094162;28;20024;-64
2022/08/16 12:28:26;;;;;;;5.22;4.15;;;32.20;52.30;;;;;;5093968;28;20027;-64
2022/08/16 12:30:52;;;;;;;4.35;3.95;;;32.20;52.00;;;;;;5094410;28;20058;-64
2022/08/16 12:33:33;;;;;;;;;;;;;;;;;;;;;
2022/08/16 12:35:59;;;;;;;4.63;4.03;;;32.20;52.20;;;;;;5089697;28;20478;-64
2022/08/16 12:38:24;;;;;;;6.22;5.63;;;32.20;52.20;;;;;;5084983;28;20096;-63